createdAt,value
2023-04-10T00:00:11.653Z,5.37
2023-04-10T00:02:39.823Z,4.73
2023-04-10T00:05:08.177Z,4.63
2023-04-10T00:07:36.038Z,4.53
2023-04-10T00:10:03.653Z,4.93
2023-04-10T00:12:31.532Z,4.57
2023-04-10T00:14:59.304Z,4.33
2023-04-10T00:17:26.936Z,4.40
2023-04-10T00:19:54.321Z,5.23
2023-04-10T00:22:22.550Z,4.37
2023-04-10T00:24:54.350Z,4.27
2023-04-10T00:27:21.932Z,5.07
2023-04-10T00:29:49.988Z,4.17
2023-04-10T00:32:17.739Z,4.50
2023-04-10T00:34:45.600Z,4.93
2023-04-10T00:37:13.293Z,4.67
2023-04-10T00:39:41.872Z,4.47
2023-04-10T00:42:10.109Z,3.60
2023-04-10T00:44:41.788Z,3.77
2023-04-10T00:47:09.259Z,4.50
2023-04-10T00:49:37.154Z,4.77
2023-04-10T00:52:06.319Z,4.47
2023-04-10T00:54:36.256Z,4.50
2023-04-10T00:57:05.267Z,4.10
2023-04-10T00:59:32.906Z,4.70
2023-04-10T01:02:00.830Z,4.07
2023-04-10T01:04:29.866Z,4.80
2023-04-10T01:07:04.678Z,4.30
2023-04-10T01:09:41.861Z,4.40
2023-04-10T01:12:19.547Z,4.00
2023-04-10T01:14:51.312Z,4.47
2023-04-10T01:17:19.387Z,4.37
2023-04-10T01:20:03.366Z,4.47
2023-04-10T01:22:54.148Z,3.93
2023-04-10T01:25:31.444Z,3.90
2023-04-10T01:28:02.325Z,4.50
2023-04-10T01:30:31.141Z,4.53
2023-04-10T01:33:00.903Z,3.97
2023-04-10T01:35:32.169Z,4.23
2023-04-10T01:38:01.848Z,3.80
2023-04-10T01:40:30.584Z,3.70
2023-04-10T01:42:59.541Z,4.37
2023-04-10T01:45:35.504Z,4.40
2023-04-10T01:48:03.311Z,4.47
2023-04-10T01:50:34.577Z,4.23
2023-04-10T01:53:04.063Z,4.30
2023-04-10T01:55:32.336Z,4.27
2023-04-10T01:58:07.970Z,4.50
2023-04-10T02:00:39.872Z,3.80
2023-04-10T02:03:07.825Z,4.30
2023-04-10T02:05:43.972Z,4.10
2023-04-10T02:08:37.866Z,4.13
2023-04-10T02:11:07.582Z,4.50
2023-04-10T02:13:36.383Z,4.17
2023-04-10T02:16:05.413Z,3.83
2023-04-10T02:18:35.931Z,4.50
2023-04-10T02:21:04.084Z,4.20
2023-04-10T02:23:31.713Z,3.50
2023-04-10T02:25:59.688Z,3.97
2023-04-10T02:28:27.892Z,4.13
2023-04-10T02:30:55.431Z,3.60
2023-04-10T02:33:30.285Z,4.63
2023-04-10T02:35:57.874Z,3.50
2023-04-10T02:38:25.706Z,4.27
2023-04-10T02:40:54.084Z,4.30
2023-04-10T02:43:21.829Z,4.23
2023-04-10T02:45:49.794Z,3.97
2023-04-10T02:48:23.800Z,3.17
2023-04-10T02:50:59.452Z,4.80
2023-04-10T02:53:29.174Z,3.90
2023-04-10T02:56:00.268Z,4.07
2023-04-10T02:58:30.729Z,3.70
2023-04-10T03:00:59.436Z,3.97
2023-04-10T03:03:42.228Z,4.20
2023-04-10T03:06:10.747Z,4.20
2023-04-10T03:08:39.691Z,3.90
2023-04-10T03:11:09.940Z,3.60
2023-04-10T03:13:37.582Z,3.60
2023-04-10T03:16:09.042Z,3.77
2023-04-10T03:18:37.104Z,3.50
2023-04-10T03:21:04.977Z,3.40
2023-04-10T03:23:32.903Z,4.23
2023-04-10T03:26:00.891Z,3.70
2023-04-10T03:28:30.815Z,3.73
2023-04-10T03:30:58.626Z,4.17
2023-04-10T03:33:26.455Z,3.50
2023-04-10T03:35:54.261Z,3.33
2023-04-10T03:38:24.316Z,3.77
2023-04-10T03:40:54.007Z,3.33
2023-04-10T03:43:24.364Z,3.30
2023-04-10T03:45:53.977Z,4.13
2023-04-10T03:48:22.117Z,3.13
2023-04-10T03:50:49.770Z,4.30
2023-04-10T03:53:17.389Z,3.67
2023-04-10T03:55:46.553Z,3.40
2023-04-10T03:58:14.267Z,3.50
2023-04-10T04:00:41.875Z,3.33
2023-04-10T04:03:21.416Z,4.10
2023-04-10T04:06:01.240Z,2.93
2023-04-10T04:08:38.669Z,3.07
2023-04-10T04:11:08.990Z,3.80
2023-04-10T04:13:55.510Z,3.13
2023-04-10T04:16:42.076Z,3.80
2023-04-10T04:19:30.038Z,3.93
2023-04-10T04:22:21.328Z,3.53
2023-04-10T04:25:15.040Z,3.60
2023-04-10T04:28:09.999Z,3.60
2023-04-10T04:31:04.034Z,2.80
2023-04-10T04:33:50.160Z,3.23
2023-04-10T04:36:43.606Z,3.60
2023-04-10T04:39:37.539Z,3.63
2023-04-10T04:42:32.057Z,2.97
2023-04-10T04:45:14.286Z,2.97
2023-04-10T04:48:08.010Z,2.93
2023-04-10T04:50:55.604Z,2.93
2023-04-10T04:54:01.570Z,3.27
2023-04-10T04:56:47.902Z,3.50
2023-04-10T04:59:23.647Z,2.90
2023-04-10T05:02:06.223Z,3.10
2023-04-10T05:05:00.529Z,3.30
2023-04-10T05:07:52.739Z,3.17
2023-04-10T05:10:58.582Z,3.27
2023-04-10T05:13:54.062Z,2.70
2023-04-10T05:16:40.128Z,3.67
2023-04-10T05:19:36.781Z,3.63
2023-04-10T05:22:18.519Z,3.10
2023-04-10T05:24:46.053Z,3.77
2023-04-10T05:27:23.178Z,3.10
2023-04-10T05:30:19.940Z,3.47
2023-04-10T05:33:07.747Z,3.60
2023-04-10T05:35:48.808Z,3.27
2023-04-10T05:38:39.425Z,3.27
2023-04-10T05:41:19.325Z,3.47
2023-04-10T05:43:59.641Z,3.80
2023-04-10T05:46:50.614Z,3.33
2023-04-10T05:49:33.732Z,3.00
2023-04-10T05:52:19.051Z,3.40
2023-04-10T05:55:02.436Z,3.10
2023-04-10T05:57:54.385Z,3.13
2023-04-10T06:00:22.100Z,3.23
2023-04-10T06:03:09.819Z,3.63
2023-04-10T06:05:47.188Z,3.37
2023-04-10T06:08:14.555Z,3.50
2023-04-10T06:10:42.258Z,3.47
2023-04-10T06:13:11.471Z,3.20
2023-04-10T06:15:39.071Z,3.53
2023-04-10T06:18:06.601Z,3.60
2023-04-10T06:20:33.861Z,3.10
2023-04-10T06:23:01.221Z,4.18
2023-04-10T06:25:28.579Z,2.97
2023-04-10T06:27:56.401Z,3.43
2023-04-10T06:30:23.694Z,3.63
2023-04-10T06:32:52.014Z,2.67
2023-04-10T06:35:22.086Z,3.90
2023-04-10T06:37:49.414Z,3.33
2023-04-10T06:40:16.794Z,3.30
2023-04-10T06:42:44.222Z,3.40
2023-04-10T06:45:30.633Z,3.07
2023-04-10T06:47:58.410Z,4.07
2023-04-10T06:50:26.318Z,3.17
2023-04-10T06:52:55.972Z,3.50
2023-04-10T06:55:25.958Z,3.80
2023-04-10T06:57:53.444Z,3.33
2023-04-10T07:00:21.219Z,3.90
2023-04-10T07:02:48.703Z,3.13
2023-04-10T07:05:16.541Z,2.97
2023-04-10T07:07:44.022Z,3.97
2023-04-10T07:10:11.609Z,3.33
2023-04-10T07:12:39.048Z,3.27
2023-04-10T07:15:06.890Z,3.43
2023-04-10T07:17:34.389Z,3.50
2023-04-10T07:20:01.867Z,3.50
2023-04-10T07:22:29.203Z,3.80
2023-04-10T07:24:56.640Z,3.23
2023-04-10T07:27:24.853Z,3.13
2023-04-10T07:29:55.103Z,3.77
2023-04-10T07:32:22.970Z,3.23
2023-04-10T07:34:50.922Z,3.93
2023-04-10T07:37:21.163Z,3.07
2023-04-10T07:39:48.687Z,3.87
2023-04-10T07:42:17.284Z,3.53
2023-04-10T07:44:48.494Z,3.20
2023-04-10T07:47:23.047Z,3.23
2023-04-10T07:49:58.983Z,3.23
2023-04-10T07:52:34.698Z,3.73
2023-04-10T07:55:16.874Z,3.77
2023-04-10T07:58:12.942Z,3.47
2023-04-10T08:00:40.701Z,3.00
2023-04-10T08:04:13.310Z,3.27
2023-04-10T08:06:45.141Z,3.13
2023-04-10T08:09:42.558Z,3.10
2023-04-10T08:12:10.642Z,3.43
2023-04-10T08:14:39.304Z,3.63
2023-04-10T08:17:14.825Z,3.13
2023-04-10T08:19:43.492Z,3.50
2023-04-10T08:22:11.181Z,3.50
2023-04-10T08:24:38.660Z,3.23
2023-04-10T08:27:08.111Z,3.33
2023-04-10T08:29:36.388Z,3.90
2023-04-10T08:32:03.929Z,3.37
2023-04-10T08:34:32.135Z,3.47
2023-04-10T08:36:59.872Z,4.70
2023-04-10T08:39:27.890Z,3.70
2023-04-10T08:41:56.188Z,4.50
2023-04-10T08:44:23.921Z,3.40
2023-04-10T08:46:53.034Z,3.47
2023-04-10T08:49:38.348Z,3.50
2023-04-10T08:52:19.279Z,4.10
2023-04-10T08:54:49.097Z,3.20
2023-04-10T08:58:00.675Z,3.97
2023-04-10T09:00:34.878Z,4.03
2023-04-10T09:03:05.394Z,2.87
2023-04-10T09:05:33.194Z,4.40
2023-04-10T09:08:01.308Z,3.50
2023-04-10T09:10:29.001Z,3.80
2023-04-10T09:12:56.719Z,3.70
2023-04-10T09:15:29.718Z,3.60
2023-04-10T09:18:01.656Z,3.73
2023-04-10T09:20:30.817Z,3.63
2023-04-10T09:22:59.008Z,3.73
2023-04-10T09:25:38.911Z,3.73
2023-04-10T09:28:07.647Z,3.47
2023-04-10T09:30:36.559Z,3.87
2023-04-10T09:33:04.515Z,3.77
2023-04-10T09:35:39.173Z,3.30
2023-04-10T09:38:17.054Z,4.40
2023-04-10T09:40:45.135Z,3.60
2023-04-10T09:43:20.195Z,4.23
2023-04-10T09:45:49.849Z,3.57
2023-04-10T09:48:17.498Z,4.20
2023-04-10T09:50:45.241Z,3.87
2023-04-10T09:53:20.094Z,4.37
2023-04-10T09:55:48.376Z,3.70
2023-04-10T09:58:16.308Z,4.17
2023-04-10T10:00:45.450Z,3.33
2023-04-10T10:03:14.211Z,4.27
2023-04-10T10:05:43.204Z,3.40
2023-04-10T10:08:12.379Z,3.70
2023-04-10T10:10:41.589Z,3.30
2023-04-10T10:13:11.439Z,4.37
2023-04-10T10:15:47.286Z,3.83
2023-04-10T10:18:33.758Z,3.80
2023-04-10T10:21:01.840Z,4.33
2023-04-10T10:23:32.983Z,4.20
2023-04-10T10:26:11.367Z,3.73
2023-04-10T10:28:41.193Z,4.07
2023-04-10T10:31:08.726Z,4.53
2023-04-10T10:33:38.830Z,4.13
2023-04-10T10:36:06.824Z,4.13
2023-04-10T10:38:34.956Z,4.67
2023-04-10T10:41:22.179Z,5.03
2023-04-10T10:44:08.605Z,4.57
2023-04-10T10:46:48.884Z,4.27
2023-04-10T10:49:19.682Z,4.23
2023-04-10T10:51:51.503Z,4.20
2023-04-10T10:54:32.558Z,4.00
2023-04-10T10:57:01.843Z,3.87
2023-04-10T10:59:44.930Z,3.97
2023-04-10T11:02:19.945Z,4.17
2023-04-10T11:04:48.479Z,4.83
2023-04-10T11:07:18.528Z,4.40
2023-04-10T11:09:49.909Z,4.70
2023-04-10T11:12:19.335Z,5.23
2023-04-10T11:14:57.231Z,5.07
2023-04-10T11:17:44.179Z,4.37
2023-04-10T11:20:12.120Z,4.70
2023-04-10T11:22:58.720Z,5.77
2023-04-10T11:25:46.736Z,5.57
2023-04-10T11:28:33.240Z,4.73
2023-04-10T11:31:22.271Z,4.73
2023-04-10T11:33:52.170Z,4.33
2023-04-10T11:36:20.508Z,4.87
2023-04-10T11:38:59.205Z,5.30
2023-04-10T11:41:30.980Z,4.47
2023-04-10T11:43:59.333Z,5.37
2023-04-10T11:46:26.934Z,5.00
2023-04-10T11:48:56.558Z,5.70
2023-04-10T11:51:24.491Z,5.07
2023-04-10T11:54:04.636Z,4.67
2023-04-10T11:56:32.118Z,5.40
2023-04-10T11:59:02.392Z,4.03
2023-04-10T12:01:29.770Z,4.60
2023-04-10T12:03:57.784Z,4.60
2023-04-10T12:06:25.603Z,4.73
2023-04-10T12:08:53.648Z,4.85
2023-04-10T12:11:24.957Z,4.00
2023-04-10T12:13:53.401Z,4.10
2023-04-10T12:16:21.471Z,4.67
2023-04-10T12:18:49.582Z,4.50
2023-04-10T12:21:17.629Z,3.53
2023-04-10T12:23:46.164Z,3.83
2023-04-10T12:26:14.749Z,3.13
2023-04-10T12:28:43.169Z,3.90
2023-04-10T12:31:11.012Z,3.43
2023-04-10T12:33:40.117Z,4.03
2023-04-10T12:36:07.684Z,3.90
2023-04-10T12:38:45.351Z,3.77
2023-04-10T12:41:12.866Z,3.60
2023-04-10T12:43:42.083Z,3.87
2023-04-10T12:46:11.138Z,3.77
2023-04-10T12:48:39.016Z,3.50
2023-04-10T12:51:06.855Z,3.60
2023-04-10T12:53:44.128Z,3.60
2023-04-10T12:56:12.437Z,3.83
2023-04-10T12:58:42.463Z,3.40
2023-04-10T13:01:10.554Z,4.10
2023-04-10T13:03:38.670Z,3.77
2023-04-10T13:06:07.516Z,3.33
2023-04-10T13:08:36.915Z,3.63
2023-04-10T13:11:04.824Z,4.03
2023-04-10T13:13:34.975Z,3.83
2023-04-10T13:16:02.582Z,3.63
2023-04-10T13:18:29.989Z,4.20
2023-04-10T13:21:01.832Z,3.60
2023-04-10T13:23:29.392Z,4.00
2023-04-10T13:25:59.689Z,3.50
2023-04-10T13:28:27.078Z,3.60
2023-04-10T13:30:54.580Z,4.07
2023-04-10T13:33:22.428Z,3.20
2023-04-10T13:35:50.032Z,3.57
2023-04-10T13:38:18.649Z,3.73
2023-04-10T13:40:47.448Z,3.43
2023-04-10T13:43:15.012Z,3.53
2023-04-10T13:45:42.492Z,3.10
2023-04-10T13:48:10.024Z,4.10
2023-04-10T13:50:37.634Z,3.53
2023-04-10T13:53:05.173Z,3.50
2023-04-10T13:55:32.669Z,3.20
2023-04-10T13:58:00.284Z,3.03
2023-04-10T14:00:27.929Z,3.63
2023-04-10T14:02:55.681Z,3.00
2023-04-10T14:05:23.858Z,3.47
2023-04-10T14:07:56.752Z,2.87
2023-04-10T14:10:27.089Z,3.47
2023-04-10T14:12:54.500Z,3.27
2023-04-10T14:15:22.169Z,3.57
2023-04-10T14:17:49.633Z,3.33
2023-04-10T14:20:17.055Z,3.30
2023-04-10T14:22:44.460Z,2.93
2023-04-10T14:25:15.922Z,3.37
2023-04-10T14:27:43.846Z,2.67
2023-04-10T14:30:11.509Z,2.83
2023-04-10T14:32:39.813Z,3.20
2023-04-10T14:35:07.577Z,3.00
2023-04-10T14:37:34.868Z,2.87
2023-04-10T14:40:02.267Z,2.30
2023-04-10T14:42:30.113Z,2.63
2023-04-10T14:45:00.781Z,2.60
2023-04-10T14:47:28.269Z,2.90
2023-04-10T14:49:55.691Z,2.53
2023-04-10T14:52:24.353Z,2.33
2023-04-10T14:54:51.739Z,2.30
2023-04-10T14:57:19.203Z,2.03
2023-04-10T14:59:46.660Z,2.67
2023-04-10T15:02:14.131Z,2.20
2023-04-10T15:04:41.529Z,2.37
2023-04-10T15:07:08.898Z,2.50
2023-04-10T15:09:36.406Z,2.40
2023-04-10T15:12:03.892Z,2.07
2023-04-10T15:14:31.377Z,2.60
2023-04-10T15:16:58.804Z,2.13
2023-04-10T15:19:26.272Z,2.63
2023-04-10T15:21:54.551Z,2.57
2023-04-10T15:24:22.017Z,2.20
2023-04-10T15:26:49.565Z,2.20
2023-04-10T15:29:17.046Z,2.40
2023-04-10T15:31:44.479Z,3.13
2023-04-10T15:34:11.938Z,2.10
2023-04-10T15:36:39.261Z,2.73
2023-04-10T15:39:06.635Z,2.43
2023-04-10T15:41:34.033Z,2.27
2023-04-10T15:44:01.439Z,2.30
2023-04-10T15:49:00.130Z,2.47
2023-04-10T15:51:27.875Z,2.80
2023-04-10T15:53:56.098Z,2.27
2023-04-10T15:56:23.660Z,2.40
2023-04-10T15:58:51.149Z,2.43
2023-04-10T16:01:18.489Z,2.60
2023-04-10T16:03:46.169Z,3.00
2023-04-10T16:06:13.976Z,2.27
2023-04-10T16:08:41.389Z,2.40
2023-04-10T16:11:08.853Z,2.27
2023-04-10T16:13:37.462Z,2.23
2023-04-10T16:16:08.645Z,2.20
2023-04-10T16:18:36.265Z,2.47
2023-04-10T16:21:04.074Z,2.57
2023-04-10T16:23:31.548Z,2.50
2023-04-10T16:25:58.941Z,2.50
2023-04-10T16:28:26.480Z,2.37
2023-04-10T16:30:53.801Z,2.40
2023-04-10T16:33:21.171Z,2.40
2023-04-10T16:35:48.784Z,2.00
2023-04-10T16:38:16.102Z,2.20
2023-04-10T16:40:43.492Z,2.10
2023-04-10T16:43:12.088Z,2.50
2023-04-10T16:45:39.518Z,2.43
2023-04-10T16:48:06.944Z,2.83
2023-04-10T16:50:37.313Z,2.73
2023-04-10T16:53:04.827Z,2.73
2023-04-10T16:55:32.440Z,2.60
2023-04-10T16:57:59.821Z,3.33
2023-04-10T17:00:27.282Z,2.47
2023-04-10T17:02:54.773Z,2.47
2023-04-10T17:05:22.154Z,2.47
2023-04-10T17:07:49.736Z,2.13
2023-04-10T17:10:17.327Z,2.03
2023-04-10T17:12:44.813Z,2.20
2023-04-10T17:15:12.530Z,2.27
2023-04-10T17:17:39.934Z,2.10
2023-04-10T17:20:09.718Z,2.03
2023-04-10T17:22:37.150Z,2.23
2023-04-10T17:25:04.565Z,1.80
2023-04-10T17:27:32.196Z,1.80
2023-04-10T17:29:59.493Z,1.77
2023-04-10T17:32:26.938Z,2.10
2023-04-10T17:34:54.590Z,1.60
2023-04-10T17:37:22.787Z,2.10
2023-04-10T17:39:52.234Z,1.80
2023-04-10T17:42:19.667Z,1.90
2023-04-10T17:44:47.033Z,1.70
2023-04-10T17:47:14.755Z,2.47
2023-04-10T17:49:42.112Z,2.00
2023-04-10T17:52:09.414Z,1.93
2023-04-10T17:54:36.744Z,1.50
2023-04-10T17:57:05.170Z,2.10
2023-04-10T17:59:32.524Z,1.97
2023-04-10T18:01:59.979Z,1.63
2023-04-10T18:04:27.430Z,2.03
2023-04-10T18:06:54.755Z,2.10
2023-04-10T18:09:22.097Z,2.00
2023-04-10T18:11:50.770Z,1.60
2023-04-10T18:14:18.258Z,2.00
2023-04-10T18:16:45.666Z,1.77
2023-04-10T18:19:12.987Z,1.80
2023-04-10T18:21:43.295Z,1.60
2023-04-10T18:24:14.391Z,1.70
2023-04-10T18:26:41.684Z,1.57
2023-04-10T18:29:09.138Z,1.97
2023-04-10T18:31:36.598Z,1.47
2023-04-10T18:34:08.216Z,1.87
2023-04-10T18:36:38.773Z,1.80
2023-04-10T18:39:06.218Z,1.80
2023-04-10T18:41:33.840Z,1.80
2023-04-10T18:44:05.332Z,1.50
2023-04-10T18:46:33.308Z,1.90
2023-04-10T18:49:01.565Z,1.50
2023-04-10T18:51:28.984Z,1.30
2023-04-10T18:53:56.595Z,1.53
2023-04-10T18:56:24.232Z,1.70
2023-04-10T18:58:51.488Z,1.70
2023-04-10T19:01:18.992Z,1.70
2023-04-10T19:03:49.164Z,1.80
2023-04-10T19:06:18.250Z,1.60
2023-04-10T19:08:45.640Z,1.70
2023-04-10T19:11:13.069Z,1.50
2023-04-10T19:13:40.470Z,1.50
2023-04-10T19:16:09.088Z,1.57
2023-04-10T19:18:36.453Z,1.60
2023-04-10T19:21:04.204Z,1.60
2023-04-10T19:23:31.616Z,1.43
2023-04-10T19:26:00.310Z,2.10
2023-04-10T19:28:27.593Z,1.30
2023-04-10T19:30:54.955Z,1.63
2023-04-10T19:33:22.246Z,1.60
2023-04-10T19:35:49.683Z,1.47
2023-04-10T19:38:17.148Z,1.50
2023-04-10T19:40:44.529Z,1.27
2023-04-10T19:43:12.336Z,1.70
2023-04-10T19:45:40.139Z,1.50
2023-04-10T19:48:09.408Z,1.77
2023-04-10T19:50:36.797Z,1.20
2023-04-10T19:53:04.804Z,1.90
2023-04-10T19:55:32.340Z,1.60
2023-04-10T19:57:59.678Z,1.50
2023-04-10T20:00:27.074Z,1.73
2023-04-10T20:02:54.769Z,1.17
2023-04-10T20:05:22.370Z,1.47
2023-04-10T20:07:50.388Z,1.43
2023-04-10T20:10:17.806Z,1.60
2023-04-10T20:12:45.284Z,1.50
2023-04-10T20:15:12.776Z,1.50
2023-04-10T20:17:40.405Z,1.70
2023-04-10T20:20:08.133Z,1.60
2023-04-10T20:22:35.464Z,1.87
2023-04-10T20:25:02.884Z,1.70
2023-04-10T20:27:30.627Z,1.63
2023-04-10T20:29:58.023Z,2.17
2023-04-10T20:32:25.691Z,1.53
2023-04-10T20:34:53.109Z,1.43
2023-04-10T20:37:21.997Z,1.53
2023-04-10T20:39:49.953Z,1.80
2023-04-10T20:42:17.339Z,1.80
2023-04-10T20:44:44.734Z,2.00
2023-04-10T20:47:12.427Z,1.83
2023-04-10T20:49:40.002Z,1.97
2023-04-10T20:52:07.633Z,1.60
2023-04-10T20:54:35.031Z,1.90
2023-04-10T20:57:02.702Z,2.27
2023-04-10T20:59:30.339Z,1.80
2023-04-10T21:01:58.725Z,2.23
2023-04-10T21:04:26.174Z,2.23
2023-04-10T21:06:53.635Z,1.90
2023-04-10T21:09:21.292Z,1.70
2023-04-10T21:11:48.718Z,1.90
2023-04-10T21:14:16.179Z,1.33
2023-04-10T21:16:45.805Z,1.40
2023-04-10T21:19:13.426Z,1.63
2023-04-10T21:21:40.837Z,1.47
2023-04-10T21:24:08.349Z,2.00
2023-04-10T21:26:35.803Z,1.93
2023-04-10T21:29:03.329Z,1.50
2023-04-10T21:31:30.936Z,1.60
2023-04-10T21:33:58.341Z,1.60
2023-04-10T21:36:26.428Z,2.00
2023-04-10T21:38:54.085Z,1.23
2023-04-10T21:41:21.760Z,1.70
2023-04-10T21:43:49.110Z,1.67
2023-04-10T21:46:16.493Z,1.50
2023-04-10T21:48:43.968Z,1.30
2023-04-10T21:51:11.410Z,1.50
2023-04-10T21:53:38.774Z,1.43
2023-04-10T21:56:06.328Z,1.60
2023-04-10T21:58:33.734Z,1.50
2023-04-10T22:01:01.491Z,1.27
2023-04-10T22:03:29.082Z,1.50
2023-04-10T22:05:56.510Z,1.47
2023-04-10T22:08:23.961Z,1.33
2023-04-10T22:10:52.348Z,1.17
2023-04-10T22:13:30.424Z,1.20
2023-04-10T22:15:59.138Z,1.20
2023-04-10T22:18:26.525Z,1.17
2023-04-10T22:20:53.942Z,1.30
2023-04-10T22:23:21.322Z,1.33
2023-04-10T22:25:48.729Z,1.23
2023-04-10T22:28:16.181Z,1.10
2023-04-10T22:30:43.573Z,1.50
2023-04-10T22:33:12.005Z,1.10
2023-04-10T22:35:39.548Z,1.10
2023-04-10T22:38:07.800Z,1.30
2023-04-10T22:40:35.452Z,1.60
2023-04-10T22:43:02.850Z,1.40
2023-04-10T22:45:30.373Z,1.10
2023-04-10T22:47:57.929Z,1.37
2023-04-10T22:50:25.365Z,1.30
2023-04-10T22:52:52.749Z,1.20
2023-04-10T22:55:20.238Z,1.13
2023-04-10T22:57:49.300Z,1.13
2023-04-10T23:00:17.383Z,1.20
2023-04-10T23:02:45.019Z,1.30
2023-04-10T23:05:12.464Z,1.50
2023-04-10T23:07:39.822Z,1.53
2023-04-10T23:10:07.683Z,1.27
2023-04-10T23:12:35.095Z,1.27
2023-04-10T23:15:02.433Z,1.30
2023-04-10T23:17:29.835Z,1.10
2023-04-10T23:19:57.400Z,1.43
2023-04-10T23:22:24.937Z,1.30
2023-04-10T23:24:55.776Z,1.00
2023-04-10T23:27:23.251Z,1.40
2023-04-10T23:29:50.750Z,1.30
2023-04-10T23:32:18.347Z,1.40
2023-04-10T23:34:45.971Z,1.50
2023-04-10T23:37:13.440Z,1.27
2023-04-10T23:39:40.885Z,1.60
2023-04-10T23:42:08.307Z,1.03
2023-04-10T23:44:36.709Z,1.13
2023-04-10T23:47:04.177Z,1.50
2023-04-10T23:49:31.658Z,1.30
2023-04-10T23:51:59.066Z,1.30
2023-04-10T23:54:26.339Z,1.60
2023-04-10T23:56:53.653Z,1.37
2023-04-10T23:59:21.044Z,1.33
